createdAt,value
2023-02-07T00:00:38.459Z,1.54
2023-02-07T00:03:06.552Z,0.11
2023-02-07T00:05:33.196Z,0.11
2023-02-07T00:07:59.717Z,-1.36
2023-02-07T00:10:26.261Z,-3.69
2023-02-07T00:12:52.791Z,-2.73
2023-02-07T00:15:19.564Z,-0.35
2023-02-07T00:17:46.093Z,0.95
2023-02-07T00:20:13.975Z,1.43
2023-02-07T00:22:40.500Z,1.50
2023-02-07T00:25:07.057Z,1.53
2023-02-07T00:27:33.645Z,1.57
2023-02-07T00:30:00.231Z,1.47
2023-02-07T00:32:30.315Z,1.58
2023-02-07T00:34:56.861Z,1.61
2023-02-07T00:37:24.754Z,1.62
2023-02-07T00:39:51.481Z,1.60
2023-02-07T00:42:18.071Z,1.59
2023-02-07T00:44:44.655Z,1.42
2023-02-07T00:47:11.179Z,1.57
2023-02-07T00:49:37.687Z,1.63
2023-02-07T00:52:04.548Z,1.61
2023-02-07T00:54:32.555Z,1.60
2023-02-07T00:56:59.071Z,1.61
2023-02-07T00:59:25.760Z,1.62
2023-02-07T01:01:52.287Z,1.59
2023-02-07T01:04:18.921Z,1.61
2023-02-07T01:06:45.465Z,1.62
2023-02-07T01:09:12.975Z,1.59
2023-02-07T01:11:40.896Z,1.60
2023-02-07T01:14:07.494Z,1.08
2023-02-07T01:16:36.058Z,-1.62
2023-02-07T01:19:05.513Z,0.92
2023-02-07T01:21:32.135Z,1.11
2023-02-07T01:23:59.100Z,1.40
2023-02-07T01:26:26.814Z,1.45
2023-02-07T01:28:55.192Z,1.48
2023-02-07T01:31:23.420Z,1.46
2023-02-07T01:33:54.301Z,1.48
2023-02-07T01:36:21.108Z,-2.82
2023-02-07T01:38:47.668Z,0.69
2023-02-07T01:41:14.680Z,1.25
2023-02-07T01:43:57.644Z,1.37
2023-02-07T01:46:25.233Z,1.39
2023-02-07T01:48:53.003Z,1.40
2023-02-07T01:51:19.689Z,1.40
2023-02-07T01:53:47.149Z,-1.71
2023-02-07T01:56:30.451Z,0.62
2023-02-07T01:58:59.838Z,-0.50
2023-02-07T02:01:26.695Z,1.09
2023-02-07T02:03:55.639Z,1.22
2023-02-07T02:06:24.781Z,1.24
2023-02-07T02:08:54.536Z,1.28
2023-02-07T02:11:45.567Z,1.30
2023-02-07T02:14:25.372Z,1.29
2023-02-07T02:17:02.569Z,1.28
2023-02-07T02:20:12.225Z,1.28
2023-02-07T02:22:55.638Z,1.28
2023-02-07T02:25:55.103Z,1.28
2023-02-07T02:28:47.525Z,1.27
2023-02-07T02:31:50.814Z,1.22
2023-02-07T02:34:24.025Z,0.50
2023-02-07T02:36:57.261Z,1.16
2023-02-07T02:39:32.540Z,1.23
2023-02-07T02:42:06.814Z,1.21
2023-02-07T02:44:38.286Z,1.22
2023-02-07T02:47:05.219Z,0.70
2023-02-07T02:49:34.821Z,-1.47
2023-02-07T02:52:01.399Z,0.57
2023-02-07T02:54:30.302Z,1.00
2023-02-07T02:57:36.519Z,1.09
2023-02-07T03:00:20.680Z,1.10
2023-02-07T03:02:54.760Z,1.11
2023-02-07T03:05:41.605Z,1.10
2023-02-07T03:08:18.265Z,1.11
2023-02-07T03:10:53.701Z,1.10
2023-02-07T03:13:26.923Z,1.08
2023-02-07T03:16:04.296Z,1.07
2023-02-07T03:18:43.093Z,1.06
2023-02-07T03:21:19.977Z,1.08
2023-02-07T03:23:49.091Z,1.05
2023-02-07T03:26:16.288Z,1.04
2023-02-07T03:28:43.919Z,1.03
2023-02-07T03:31:13.249Z,1.02
2023-02-07T03:33:41.630Z,1.02
2023-02-07T03:36:15.630Z,1.01
2023-02-07T03:38:42.226Z,0.99
2023-02-07T03:41:16.459Z,1.00
2023-02-07T03:43:43.792Z,0.99
2023-02-07T03:46:11.415Z,1.00
2023-02-07T03:48:38.432Z,0.98
2023-02-07T03:51:05.444Z,0.99
2023-02-07T03:53:33.386Z,0.95
2023-02-07T03:56:00.059Z,0.95
2023-02-07T03:58:26.647Z,-0.26
2023-02-07T04:00:53.245Z,0.71
2023-02-07T04:03:19.822Z,0.85
2023-02-07T04:05:46.487Z,0.91
2023-02-07T04:08:13.041Z,0.86
2023-02-07T04:10:40.951Z,0.86
2023-02-07T04:13:07.534Z,0.87
2023-02-07T04:15:34.171Z,0.86
2023-02-07T04:18:00.752Z,0.86
2023-02-07T04:20:27.329Z,0.86
2023-02-07T04:22:53.862Z,0.85
2023-02-07T04:25:20.409Z,0.87
2023-02-07T04:27:48.308Z,-0.87
2023-02-07T04:30:14.862Z,-4.49
2023-02-07T04:32:41.476Z,-1.70
2023-02-07T04:35:08.777Z,-3.07
2023-02-07T04:37:35.345Z,-0.80
2023-02-07T04:40:01.934Z,0.11
2023-02-07T04:42:28.467Z,-1.06
2023-02-07T04:44:56.348Z,-4.96
2023-02-07T04:47:22.899Z,-0.57
2023-02-07T04:49:49.448Z,-4.17
2023-02-07T04:52:16.004Z,-2.54
2023-02-07T04:54:42.551Z,-0.69
2023-02-07T04:57:09.129Z,-0.13
2023-02-07T04:59:35.700Z,-0.88
2023-02-07T05:02:03.610Z,-0.89
2023-02-07T05:04:30.257Z,0.06
2023-02-07T05:06:56.799Z,0.22
2023-02-07T05:09:23.382Z,0.28
2023-02-07T05:11:49.924Z,0.26
2023-02-07T05:14:16.492Z,0.24
2023-02-07T05:16:43.104Z,0.26
2023-02-07T05:19:11.001Z,0.31
2023-02-07T05:21:37.530Z,0.31
2023-02-07T05:24:04.323Z,0.35
2023-02-07T05:26:30.925Z,0.28
2023-02-07T05:28:57.488Z,0.30
2023-02-07T05:31:44.115Z,0.34
2023-02-07T05:34:12.475Z,-0.57
2023-02-07T05:36:39.076Z,-0.36
2023-02-07T05:39:05.713Z,-2.40
2023-02-07T05:41:32.236Z,-5.18
2023-02-07T05:43:58.740Z,-1.78
2023-02-07T05:46:25.468Z,-0.44
2023-02-07T05:48:52.019Z,-0.03
2023-02-07T05:51:19.880Z,-1.04
2023-02-07T05:53:46.398Z,-0.31
2023-02-07T05:56:12.920Z,0.07
2023-02-07T05:58:39.495Z,0.12
2023-02-07T06:01:06.023Z,0.15
2023-02-07T06:03:32.588Z,0.16
2023-02-07T06:05:59.221Z,0.21
2023-02-07T06:08:27.084Z,0.20
2023-02-07T06:10:53.642Z,0.16
2023-02-07T06:13:20.321Z,0.17
2023-02-07T06:15:47.560Z,0.16
2023-02-07T06:18:14.457Z,0.15
2023-02-07T06:20:40.988Z,0.15
2023-02-07T06:23:07.517Z,0.15
2023-02-07T06:25:35.396Z,0.15
2023-02-07T06:28:01.947Z,0.15
2023-02-07T06:30:28.651Z,0.17
2023-02-07T06:32:55.206Z,0.16
2023-02-07T06:35:21.735Z,0.14
2023-02-07T06:37:48.333Z,0.14
2023-02-07T06:40:14.893Z,0.15
2023-02-07T06:42:44.568Z,0.12
2023-02-07T06:45:10.947Z,0.13
2023-02-07T06:47:37.647Z,0.12
2023-02-07T06:50:04.735Z,0.11
2023-02-07T06:52:31.309Z,0.10
2023-02-07T06:54:57.884Z,0.09
2023-02-07T06:57:24.564Z,-0.84
2023-02-07T06:59:52.542Z,-0.11
2023-02-07T07:02:19.194Z,-0.01
2023-02-07T07:04:45.822Z,0.03
2023-02-07T07:07:12.436Z,0.05
2023-02-07T07:09:38.991Z,0.05
2023-02-07T07:12:06.111Z,-0.54
2023-02-07T07:14:32.658Z,-0.10
2023-02-07T07:17:00.580Z,-0.03
2023-02-07T07:19:27.172Z,-0.01
2023-02-07T07:21:55.180Z,0.00
2023-02-07T07:24:22.054Z,-0.01
2023-02-07T07:26:50.136Z,0.00
2023-02-07T07:29:17.866Z,-0.02
2023-02-07T07:31:44.845Z,-0.02
2023-02-07T07:34:13.552Z,-0.04
2023-02-07T07:36:40.085Z,-0.04
2023-02-07T07:39:08.859Z,-0.04
2023-02-07T07:41:35.449Z,-0.04
2023-02-07T07:44:02.069Z,-0.01
2023-02-07T07:46:29.163Z,0.02
2023-02-07T07:48:55.798Z,-0.02
2023-02-07T07:51:23.732Z,-0.03
2023-02-07T07:53:50.307Z,0.01
2023-02-07T07:56:16.838Z,0.02
2023-02-07T07:58:43.468Z,0.06
2023-02-07T08:01:10.025Z,-0.03
2023-02-07T08:03:36.633Z,0.21
2023-02-07T08:06:03.331Z,0.33
2023-02-07T08:08:32.565Z,0.06
2023-02-07T08:11:01.790Z,-0.06
2023-02-07T08:13:29.753Z,0.08
2023-02-07T08:15:59.145Z,0.17
2023-02-07T08:18:25.735Z,0.38
2023-02-07T08:20:52.499Z,2.04
2023-02-07T08:23:19.095Z,1.98
2023-02-07T08:25:46.964Z,2.40
2023-02-07T08:28:13.800Z,2.45
2023-02-07T08:30:40.702Z,2.44
2023-02-07T08:33:07.423Z,2.70
2023-02-07T08:35:34.133Z,2.88
2023-02-07T08:38:00.712Z,2.69
2023-02-07T08:40:27.502Z,2.23
2023-02-07T08:42:55.669Z,2.95
2023-02-07T08:45:22.301Z,3.49
2023-02-07T08:47:48.916Z,4.03
2023-02-07T08:50:17.052Z,3.82
2023-02-07T08:52:43.785Z,3.78
2023-02-07T08:55:11.519Z,4.68
2023-02-07T08:57:39.304Z,4.90
2023-02-07T09:00:09.234Z,5.16
2023-02-07T09:02:36.022Z,4.44
2023-02-07T09:05:02.773Z,4.16
2023-02-07T09:07:29.368Z,4.93
2023-02-07T09:09:55.926Z,5.64
2023-02-07T09:12:22.633Z,4.41
2023-02-07T09:14:49.159Z,6.27
2023-02-07T09:17:17.052Z,6.30
2023-02-07T09:19:43.605Z,6.62
2023-02-07T09:22:10.164Z,5.92
2023-02-07T09:24:36.940Z,4.69
2023-02-07T09:27:03.597Z,3.29
2023-02-07T09:29:30.164Z,1.73
2023-02-07T09:31:56.818Z,4.56
2023-02-07T09:34:24.827Z,5.11
2023-02-07T09:36:51.629Z,6.63
2023-02-07T09:39:18.557Z,6.42
2023-02-07T09:41:54.777Z,7.29
2023-02-07T09:44:27.082Z,5.26
2023-02-07T09:46:59.869Z,6.80
2023-02-07T09:49:36.970Z,8.37
2023-02-07T09:52:05.602Z,5.74
2023-02-07T09:54:37.929Z,5.58
2023-02-07T09:57:08.991Z,6.71
2023-02-07T09:59:50.304Z,4.47
2023-02-07T10:02:26.257Z,2.84
2023-02-07T10:05:00.323Z,3.21
2023-02-07T10:07:27.204Z,4.13
2023-02-07T10:09:54.078Z,3.83
2023-02-07T10:12:53.424Z,7.56
2023-02-07T10:15:32.348Z,7.46
2023-02-07T10:18:15.733Z,7.43
2023-02-07T10:20:49.570Z,6.41
2023-02-07T10:23:32.339Z,8.02
2023-02-07T10:26:11.015Z,3.81
2023-02-07T10:29:12.702Z,2.19
2023-02-07T10:31:43.252Z,5.77
2023-02-07T10:34:13.997Z,7.91
2023-02-07T10:36:45.152Z,6.75
2023-02-07T10:39:17.928Z,7.17
2023-02-07T10:41:45.305Z,4.08
2023-02-07T10:44:14.089Z,3.07
2023-02-07T10:46:42.886Z,3.62
2023-02-07T10:49:24.655Z,2.37
2023-02-07T10:51:56.545Z,5.21
2023-02-07T10:54:24.622Z,3.22
2023-02-07T10:56:55.982Z,2.24
2023-02-07T10:59:36.511Z,2.55
2023-02-07T11:02:09.996Z,3.06
2023-02-07T11:04:40.092Z,3.18
2023-02-07T11:07:14.965Z,3.55
2023-02-07T11:09:42.080Z,3.09
2023-02-07T11:12:14.834Z,3.17
2023-02-07T11:14:45.634Z,2.69
2023-02-07T11:17:21.693Z,3.01
2023-02-07T11:19:48.305Z,3.23
2023-02-07T11:22:18.987Z,3.78
2023-02-07T11:24:46.883Z,5.89
2023-02-07T11:27:15.880Z,6.99
2023-02-07T11:29:48.897Z,5.65
2023-02-07T11:32:16.790Z,7.58
2023-02-07T11:34:47.847Z,7.06
2023-02-07T11:37:26.179Z,4.57
2023-02-07T11:39:54.760Z,3.48
2023-02-07T11:42:23.463Z,4.26
2023-02-07T11:44:51.020Z,3.33
2023-02-07T11:47:20.986Z,2.06
2023-02-07T11:49:50.683Z,2.18
2023-02-07T11:52:17.417Z,2.15
2023-02-07T11:54:51.495Z,2.28
2023-02-07T11:57:20.801Z,1.99
2023-02-07T11:59:54.473Z,2.25
2023-02-07T12:02:24.622Z,2.28
2023-02-07T12:04:52.889Z,2.27
2023-02-07T12:07:25.760Z,2.17
2023-02-07T12:09:56.283Z,2.17
2023-02-07T12:12:32.931Z,2.17
2023-02-07T12:15:03.676Z,2.16
2023-02-07T12:17:37.711Z,2.11
2023-02-07T12:20:09.832Z,2.14
2023-02-07T12:22:47.124Z,2.28
2023-02-07T12:25:21.687Z,2.03
2023-02-07T12:27:51.739Z,2.27
2023-02-07T12:30:26.115Z,2.52
2023-02-07T12:32:58.399Z,2.55
2023-02-07T12:35:29.962Z,2.35
2023-02-07T12:38:05.834Z,2.18
2023-02-07T12:40:41.556Z,2.59
2023-02-07T12:43:14.479Z,2.44
2023-02-07T12:45:56.920Z,2.15
2023-02-07T12:48:35.316Z,2.58
2023-02-07T12:51:17.445Z,2.36
2023-02-07T12:54:02.879Z,2.15
2023-02-07T12:56:42.634Z,2.28
2023-02-07T12:59:13.406Z,2.12
2023-02-07T13:01:45.483Z,2.02
2023-02-07T13:04:43.588Z,2.33
2023-02-07T13:07:25.271Z,2.17
2023-02-07T13:10:00.343Z,1.54
2023-02-07T13:12:33.873Z,1.62
2023-02-07T13:15:09.922Z,1.65
2023-02-07T13:17:49.425Z,2.10
2023-02-07T13:20:27.530Z,2.29
2023-02-07T13:22:57.404Z,1.92
2023-02-07T13:25:27.793Z,2.28
2023-02-07T13:27:59.198Z,2.30
2023-02-07T13:30:29.722Z,2.29
2023-02-07T13:33:00.854Z,2.32
2023-02-07T13:35:33.377Z,2.10
2023-02-07T13:38:07.173Z,2.02
2023-02-07T13:40:44.646Z,2.02
2023-02-07T13:43:18.939Z,2.17
2023-02-07T13:45:56.750Z,2.28
2023-02-07T13:48:32.636Z,2.34
2023-02-07T13:51:10.125Z,2.16
2023-02-07T13:53:47.979Z,2.19
2023-02-07T13:56:33.781Z,1.98
2023-02-07T13:59:20.867Z,1.95
2023-02-07T14:01:51.154Z,1.92
2023-02-07T14:04:19.407Z,1.91
2023-02-07T14:06:57.309Z,1.67
2023-02-07T14:09:32.504Z,1.77
2023-02-07T14:12:02.667Z,1.48
2023-02-07T14:14:32.277Z,1.78
2023-02-07T14:17:02.247Z,1.86
2023-02-07T14:19:52.105Z,1.74
2023-02-07T14:22:21.940Z,1.87
2023-02-07T14:24:51.538Z,1.83
2023-02-07T14:27:32.385Z,1.81
2023-02-07T14:30:21.396Z,1.84
2023-02-07T14:33:11.997Z,1.76
2023-02-07T14:35:45.902Z,1.95
2023-02-07T14:38:29.315Z,1.97
2023-02-07T14:41:10.713Z,1.95
2023-02-07T14:43:50.549Z,1.97
2023-02-07T14:46:31.753Z,1.91
2023-02-07T14:49:01.337Z,1.99
2023-02-07T14:51:37.736Z,2.02
2023-02-07T14:54:08.402Z,2.03
2023-02-07T14:56:46.586Z,2.03
2023-02-07T14:59:18.490Z,2.02
2023-02-07T15:01:46.480Z,2.04
2023-02-07T15:04:13.039Z,2.04
2023-02-07T15:06:42.071Z,2.10
2023-02-07T15:09:19.551Z,1.78
2023-02-07T15:11:51.460Z,1.58
2023-02-07T15:14:27.281Z,1.67
2023-02-07T15:16:56.129Z,1.90
2023-02-07T15:19:27.868Z,1.86
2023-02-07T15:21:54.456Z,1.42
2023-02-07T15:24:27.697Z,1.21
2023-02-07T15:26:58.346Z,1.40
2023-02-07T15:29:28.407Z,1.48
2023-02-07T15:31:57.496Z,1.52
2023-02-07T15:34:31.546Z,1.76
2023-02-07T15:37:00.034Z,1.41
2023-02-07T15:39:29.488Z,1.81
2023-02-07T15:41:57.476Z,1.89
2023-02-07T15:44:26.040Z,1.93
2023-02-07T15:46:55.103Z,1.95
2023-02-07T15:49:29.219Z,1.94
2023-02-07T15:52:00.751Z,1.95
2023-02-07T15:54:27.901Z,1.97
2023-02-07T15:56:58.643Z,1.97
2023-02-07T15:59:28.862Z,1.98
2023-02-07T16:01:58.717Z,1.96
2023-02-07T16:04:29.661Z,1.97
2023-02-07T16:07:00.794Z,2.02
2023-02-07T16:09:41.698Z,1.98
2023-02-07T16:12:31.992Z,1.99
2023-02-07T16:14:59.746Z,2.00
2023-02-07T16:17:38.292Z,2.02
2023-02-07T16:20:07.210Z,2.01
2023-02-07T16:22:33.904Z,2.04
2023-02-07T16:25:02.596Z,2.06
2023-02-07T16:27:31.838Z,1.34
2023-02-07T16:29:59.907Z,1.91
2023-02-07T16:32:30.870Z,1.95
2023-02-07T16:35:00.015Z,1.96
2023-02-07T16:37:28.741Z,1.96
2023-02-07T16:39:55.388Z,1.97
2023-02-07T16:42:22.034Z,1.95
2023-02-07T16:44:48.847Z,1.95
2023-02-07T16:47:17.434Z,1.95
2023-02-07T16:49:45.088Z,1.92
2023-02-07T16:52:11.662Z,1.92
2023-02-07T16:54:39.651Z,1.61
2023-02-07T16:57:06.444Z,1.91
2023-02-07T16:59:33.030Z,1.87
2023-02-07T17:01:59.730Z,1.87
2023-02-07T17:04:26.391Z,1.89
2023-02-07T17:06:53.019Z,1.89
2023-02-07T17:09:22.886Z,1.88
2023-02-07T17:11:51.397Z,1.89
2023-02-07T17:14:18.035Z,1.87
2023-02-07T17:16:44.638Z,1.88
2023-02-07T17:19:13.296Z,1.89
2023-02-07T17:21:41.813Z,1.88
2023-02-07T17:24:09.032Z,1.85
2023-02-07T17:26:36.334Z,1.87
2023-02-07T17:29:05.009Z,1.86
2023-02-07T17:31:32.238Z,1.80
2023-02-07T17:33:59.434Z,1.86
2023-02-07T17:36:26.076Z,1.83
2023-02-07T17:38:52.610Z,1.87
2023-02-07T17:41:20.823Z,1.85
2023-02-07T17:43:47.511Z,1.87
2023-02-07T17:46:17.505Z,1.87
2023-02-07T17:48:47.351Z,1.86
2023-02-07T17:51:13.992Z,1.84
2023-02-07T17:53:40.553Z,1.87
2023-02-07T17:56:07.400Z,1.84
2023-02-07T17:58:37.900Z,1.83
2023-02-07T18:01:05.667Z,1.47
2023-02-07T18:03:33.698Z,1.76
2023-02-07T18:06:00.252Z,1.85
2023-02-07T18:08:26.822Z,1.81
2023-02-07T18:10:53.395Z,1.76
2023-02-07T18:13:21.226Z,1.76
2023-02-07T18:15:47.996Z,1.80
2023-02-07T18:18:16.388Z,1.80
2023-02-07T18:20:44.417Z,1.79
2023-02-07T18:23:13.339Z,1.81
2023-02-07T18:25:39.918Z,1.80
2023-02-07T18:28:06.506Z,1.83
2023-02-07T18:30:33.532Z,1.82
2023-02-07T18:33:00.129Z,1.82
2023-02-07T18:35:26.918Z,1.84
2023-02-07T18:37:54.798Z,1.79
2023-02-07T18:40:21.671Z,1.83
2023-02-07T18:42:48.252Z,1.86
2023-02-07T18:45:14.984Z,1.87
2023-02-07T18:47:42.014Z,1.87
2023-02-07T18:50:09.536Z,1.90
2023-02-07T18:52:36.166Z,1.88
2023-02-07T18:55:05.739Z,1.88
2023-02-07T18:57:32.259Z,1.89
2023-02-07T18:59:58.869Z,1.91
2023-02-07T19:02:25.707Z,1.90
2023-02-07T19:04:52.319Z,1.90
2023-02-07T19:07:18.835Z,1.91
2023-02-07T19:09:45.378Z,1.92
2023-02-07T19:12:13.921Z,1.91
2023-02-07T19:14:40.541Z,1.93
2023-02-07T19:17:07.292Z,1.91
2023-02-07T19:19:34.035Z,1.94
2023-02-07T19:22:00.930Z,1.86
2023-02-07T19:24:28.140Z,1.92
2023-02-07T19:26:57.055Z,1.92
2023-02-07T19:29:29.943Z,1.90
2023-02-07T19:31:57.678Z,1.92
2023-02-07T19:34:24.591Z,1.91
2023-02-07T19:36:51.559Z,1.93
2023-02-07T19:39:18.467Z,1.92
2023-02-07T19:41:45.211Z,1.92
2023-02-07T19:44:11.944Z,1.92
2023-02-07T19:46:40.072Z,1.90
2023-02-07T19:49:06.748Z,1.89
2023-02-07T19:51:33.351Z,1.92
2023-02-07T19:54:00.690Z,1.91
2023-02-07T19:56:32.105Z,1.90
2023-02-07T19:59:02.495Z,1.89
2023-02-07T20:01:29.877Z,1.87
2023-02-07T20:03:58.275Z,1.88
2023-02-07T20:06:29.130Z,1.89
2023-02-07T20:08:55.756Z,1.61
2023-02-07T20:11:22.700Z,1.79
2023-02-07T20:13:51.382Z,1.87
2023-02-07T20:16:21.470Z,1.86
2023-02-07T20:18:48.771Z,1.88
2023-02-07T20:21:22.137Z,1.84
2023-02-07T20:23:49.812Z,1.86
2023-02-07T20:26:18.963Z,1.81
2023-02-07T20:28:46.362Z,1.70
2023-02-07T20:31:15.405Z,1.84
2023-02-07T20:33:43.310Z,1.83
2023-02-07T20:36:11.867Z,1.83
2023-02-07T20:38:40.452Z,1.82
2023-02-07T20:41:08.782Z,1.84
2023-02-07T20:43:35.632Z,1.82
2023-02-07T20:46:07.803Z,1.82
2023-02-07T20:48:34.556Z,1.82
2023-02-07T20:51:03.313Z,1.80
2023-02-07T20:53:29.884Z,1.81
2023-02-07T20:56:09.323Z,1.80
2023-02-07T20:58:36.000Z,1.80
2023-02-07T21:01:10.548Z,1.80
2023-02-07T21:03:37.598Z,1.80
2023-02-07T21:06:04.626Z,1.78
2023-02-07T21:08:32.047Z,1.75
2023-02-07T21:10:59.008Z,1.78
2023-02-07T21:13:27.414Z,1.75
2023-02-07T21:16:02.690Z,1.76
2023-02-07T21:18:29.862Z,1.76
2023-02-07T21:20:57.061Z,1.75
2023-02-07T21:23:23.892Z,1.75
2023-02-07T21:25:50.633Z,1.70
2023-02-07T21:28:17.228Z,1.72
2023-02-07T21:30:45.211Z,1.71
2023-02-07T21:33:11.869Z,1.70
2023-02-07T21:35:38.546Z,1.70
2023-02-07T21:38:06.242Z,1.67
2023-02-07T21:40:32.900Z,1.70
2023-02-07T21:42:59.442Z,1.68
2023-02-07T21:45:25.988Z,1.64
2023-02-07T21:47:53.860Z,1.64
2023-02-07T21:50:20.906Z,1.64
2023-02-07T21:52:47.463Z,1.62
2023-02-07T21:55:14.072Z,1.61
2023-02-07T21:57:40.647Z,1.60
2023-02-07T22:00:08.270Z,1.57
2023-02-07T22:02:35.586Z,1.56
2023-02-07T22:05:03.649Z,1.55
2023-02-07T22:07:30.261Z,1.55
2023-02-07T22:09:56.821Z,1.52
2023-02-07T22:12:23.380Z,1.51
2023-02-07T22:14:49.930Z,1.53
2023-02-07T22:17:16.584Z,1.50
2023-02-07T22:19:43.288Z,1.50
2023-02-07T22:22:11.172Z,1.49
2023-02-07T22:24:37.709Z,1.50
2023-02-07T22:27:04.334Z,1.48
2023-02-07T22:29:30.868Z,1.45
2023-02-07T22:31:57.437Z,1.44
2023-02-07T22:34:24.095Z,1.41
2023-02-07T22:36:50.630Z,1.40
2023-02-07T22:39:18.862Z,1.39
2023-02-07T22:41:45.831Z,1.38
2023-02-07T22:44:12.692Z,1.37
2023-02-07T22:46:39.559Z,1.35
2023-02-07T22:49:06.147Z,1.35
2023-02-07T22:51:34.806Z,1.34
2023-02-07T22:54:05.474Z,1.34
2023-02-07T22:56:34.411Z,1.33
2023-02-07T22:59:01.315Z,1.31
2023-02-07T23:01:29.901Z,1.30
2023-02-07T23:03:57.455Z,1.35
2023-02-07T23:06:25.564Z,1.32
2023-02-07T23:08:53.177Z,1.28
2023-02-07T23:11:21.604Z,1.25
2023-02-07T23:13:50.201Z,1.21
2023-02-07T23:16:19.046Z,1.21
2023-02-07T23:18:45.680Z,1.21
2023-02-07T23:21:14.561Z,1.19
2023-02-07T23:23:41.164Z,1.15
2023-02-07T23:26:08.955Z,1.16
2023-02-07T23:28:37.225Z,1.15
2023-02-07T23:31:06.394Z,1.13
2023-02-07T23:33:33.378Z,1.13
2023-02-07T23:36:00.193Z,1.10
2023-02-07T23:38:26.842Z,1.10
2023-02-07T23:40:53.793Z,1.11
2023-02-07T23:43:20.345Z,1.06
2023-02-07T23:45:46.868Z,1.07
2023-02-07T23:48:14.756Z,1.07
2023-02-07T23:50:41.523Z,1.08
2023-02-07T23:53:08.429Z,1.05
2023-02-07T23:55:35.452Z,1.02
2023-02-07T23:58:02.245Z,1.01
